Terminal Aerodrome Forecast
Issued by NWS Lake Charles, LA

Current Version | Previous Version | Text Only | Print | Product List | Glossary On
Versions: 1 2 3 4 5 6 7 8 9 10 11 12 13 14 15 16 17 18 19 20 21 22 23 24 25
000
FTUS44 KLCH 261547 AAB
TAFARA
TAF AMD
KARA 261547Z 2616/2712 00000KT P6SM SCT035
     FM261800 20005KT P6SM SCT050
     FM270500 VRB05KT 4SM BR OVC005=

USA.gov is the U.S. government's official web portal to all federal, state and local government web resources and services.